Terminal Aerodrome Forecast
Issued by NWS

Home | Current Version | Previous Version | Text Only | Print | Product List | Glossary On
Versions: 1 2 3 4 5 6 7 8 9 10 11 12 13 14
000
FTUS46 KOTX 250523
TAFSFF
TAF
KSFF 250523Z 2506/2606 06006KT P6SM -RA SCT040 OVC080
     FM250700 06005KT P6SM FEW025 SCT040 BKN120
     FM251800 09008KT P6SM SCT080 BKN120
     FM252100 18007G13KT P6SM VCSH SCT040 BKN080 OVC120
     FM260300 20015G20KT P6SM -SHRA SCT030 BKN050 OVC080=

USA.gov is the U.S. government's official web portal to all federal, state and local government web resources and services.